Terminal Aerodrome Forecast
Issued by NWS

Home | Current Version | Previous Version | Text Only | Print | Product List | Glossary On
Versions: 1 2 3 4 5 6 7 8 9 10 11 12 13 14 15 16 17 18 19 20
000
FTUS44 KLZK 061742
TAFPBF
TAF
KPBF 061742Z 0618/0718 34010G19KT P6SM OVC018
     FM062000 35011G18KT P6SM OVC025
     FM070000 02006KT P6SM BKN050
     FM071100 04005KT P6SM OVC025=

USA.gov is the U.S. government's official web portal to all federal, state and local government web resources and services.